Golden Triangle Regional Airport Columbus, W Point, Starkville US
ICAO: KGTR
IATA: GTR
Category: Medium
Scheduled Services: Yes

Elevation: 264 ft
TransAlt. 18000 ft.

Airport Communications:
COLUMBUS APP/DEP:135.6
ATIS:126.375
AWOS 3:126.375
COLUMBUS CLNC DEL:126.25
CTAF:120.025
GND/CLNC DEL:135.375
TWR:120.025
UNICOM:122.8

KGTR Zoom In..

If you have problems with the map follow the link
https://www.worldairports.se/pages/airport.php?
ICAO=KGTR

Runways:

(A) RW 18 length 8003 ft width 150 ft
ILS 110.70 / hdg 182

(B) RW 36 length 8003 ft width 150 ft
ILS 111.15 / hdg 2

Location; KGTR
Day. 23 / Time. 22.01 Zulu
* Altimeter: 29.92
* Temperature: 08° c. 46.4°f.
* Wind from: 140° Speed 11 kn.
Dewpoint: 07° c.
Visibility: 10 Statute Miles.
Clouds: Overcast 1100 ft.
Conditions: Light Rain.

KGTR 232201Z 14011KT 10SM -RA OVC011 08/07 A2992


Wind From 140°
Speed 11 kn.

 
 
jpsmedia worldairports.se 2020   terms of use